sensor_id;sensor_type;location;lat;lon;timestamp;P1;durP1;ratioP1;P2;durP2;ratioP2
1276;SDS011;631;51.024;13.826;2023-09-30T00:00:57;15.20;;;14.00;;
1276;SDS011;631;51.024;13.826;2023-09-30T00:03:23;15.07;;;13.73;;
1276;SDS011;631;51.024;13.826;2023-09-30T00:05:48;16.00;;;14.70;;
1276;SDS011;631;51.024;13.826;2023-09-30T00:08:14;17.17;;;15.40;;
1276;SDS011;631;51.024;13.826;2023-09-30T00:10:40;16.37;;;15.07;;
1276;SDS011;631;51.024;13.826;2023-09-30T00:13:05;15.90;;;14.50;;
1276;SDS011;631;51.024;13.826;2023-09-30T00:15:34;16.57;;;15.27;;
1276;SDS011;631;51.024;13.826;2023-09-30T00:18:00;17.13;;;15.80;;
1276;SDS011;631;51.024;13.826;2023-09-30T00:20:26;17.70;;;15.53;;
1276;SDS011;631;51.024;13.826;2023-09-30T00:22:52;17.30;;;15.57;;
1276;SDS011;631;51.024;13.826;2023-09-30T00:25:18;16.33;;;14.87;;
1276;SDS011;631;51.024;13.826;2023-09-30T00:27:45;15.80;;;14.50;;
1276;SDS011;631;51.024;13.826;2023-09-30T00:30:11;15.67;;;14.57;;
1276;SDS011;631;51.024;13.826;2023-09-30T00:32:37;15.83;;;14.60;;
1276;SDS011;631;51.024;13.826;2023-09-30T00:35:04;15.53;;;14.17;;
1276;SDS011;631;51.024;13.826;2023-09-30T00:37:36;14.60;;;13.60;;
1276;SDS011;631;51.024;13.826;2023-09-30T00:40:03;13.50;;;12.70;;
1276;SDS011;631;51.024;13.826;2023-09-30T00:42:29;12.90;;;12.10;;
1276;SDS011;631;51.024;13.826;2023-09-30T00:44:55;12.10;;;11.50;;
1276;SDS011;631;51.024;13.826;2023-09-30T00:47:20;11.77;;;11.17;;
1276;SDS011;631;51.024;13.826;2023-09-30T00:49:47;11.93;;;11.30;;
1276;SDS011;631;51.024;13.826;2023-09-30T00:52:13;11.40;;;10.90;;
1276;SDS011;631;51.024;13.826;2023-09-30T00:54:39;11.93;;;11.33;;
1276;SDS011;631;51.024;13.826;2023-09-30T00:57:05;12.47;;;11.67;;
1276;SDS011;631;51.024;13.826;2023-09-30T00:59:31;12.80;;;12.20;;
1276;SDS011;631;51.024;13.826;2023-09-30T01:01:58;11.90;;;11.37;;
1276;SDS011;631;51.024;13.826;2023-09-30T01:04:26;12.27;;;11.47;;
1276;SDS011;631;51.024;13.826;2023-09-30T01:06:52;11.80;;;11.20;;
1276;SDS011;631;51.024;13.826;2023-09-30T01:09:18;11.73;;;11.13;;
1276;SDS011;631;51.024;13.826;2023-09-30T01:11:45;12.17;;;11.57;;
1276;SDS011;631;51.024;13.826;2023-09-30T01:14:23;12.10;;;11.50;;
1276;SDS011;631;51.024;13.826;2023-09-30T01:17:07;11.73;;;11.13;;
1276;SDS011;631;51.024;13.826;2023-09-30T01:19:33;12.00;;;11.20;;
1276;SDS011;631;51.024;13.826;2023-09-30T01:21:59;10.67;;;10.20;;
1276;SDS011;631;51.024;13.826;2023-09-30T01:24:27;10.63;;;10.13;;
1276;SDS011;631;51.024;13.826;2023-09-30T01:26:53;10.70;;;10.30;;
1276;SDS011;631;51.024;13.826;2023-09-30T01:29:20;10.40;;;10.00;;
1276;SDS011;631;51.024;13.826;2023-09-30T01:31:47;10.73;;;10.23;;
1276;SDS011;631;51.024;13.826;2023-09-30T01:34:14;10.73;;;10.23;;
1276;SDS011;631;51.024;13.826;2023-09-30T01:36:41;10.20;;;9.60;;
1276;SDS011;631;51.024;13.826;2023-09-30T01:39:08;10.57;;;10.07;;
1276;SDS011;631;51.024;13.826;2023-09-30T01:41:37;10.50;;;10.00;;
1276;SDS011;631;51.024;13.826;2023-09-30T01:44:03;10.30;;;9.90;;
1276;SDS011;631;51.024;13.826;2023-09-30T01:46:29;10.40;;;9.90;;
1276;SDS011;631;51.024;13.826;2023-09-30T01:48:55;10.40;;;10.00;;
1276;SDS011;631;51.024;13.826;2023-09-30T01:51:21;10.10;;;9.70;;
1276;SDS011;631;51.024;13.826;2023-09-30T01:53:49;10.80;;;10.30;;
1276;SDS011;631;51.024;13.826;2023-09-30T01:56:15;10.50;;;10.00;;
1276;SDS011;631;51.024;13.826;2023-09-30T01:58:41;11.10;;;10.57;;
1276;SDS011;631;51.024;13.826;2023-09-30T02:01:06;10.63;;;10.13;;
1276;SDS011;631;51.024;13.826;2023-09-30T02:03:33;11.00;;;10.30;;
1276;SDS011;631;51.024;13.826;2023-09-30T02:05:58;10.90;;;10.40;;
1276;SDS011;631;51.024;13.826;2023-09-30T02:08:24;11.20;;;10.50;;
1276;SDS011;631;51.024;13.826;2023-09-30T02:10:50;10.73;;;10.13;;
1276;SDS011;631;51.024;13.826;2023-09-30T02:13:18;11.10;;;10.50;;
1276;SDS011;631;51.024;13.826;2023-09-30T02:15:45;11.10;;;10.50;;
1276;SDS011;631;51.024;13.826;2023-09-30T02:18:11;11.30;;;10.80;;
1276;SDS011;631;51.024;13.826;2023-09-30T02:20:37;10.93;;;10.33;;
1276;SDS011;631;51.024;13.826;2023-09-30T02:23:11;10.97;;;10.37;;
1276;SDS011;631;51.024;13.826;2023-09-30T02:25:37;11.50;;;10.90;;
1276;SDS011;631;51.024;13.826;2023-09-30T02:28:03;11.60;;;10.70;;
1276;SDS011;631;51.024;13.826;2023-09-30T02:30:29;11.63;;;11.03;;
1276;SDS011;631;51.024;13.826;2023-09-30T02:32:55;12.00;;;11.30;;
1276;SDS011;631;51.024;13.826;2023-09-30T02:35:21;11.93;;;11.13;;
1276;SDS011;631;51.024;13.826;2023-09-30T02:37:47;11.50;;;10.90;;
1276;SDS011;631;51.024;13.826;2023-09-30T02:40:14;11.70;;;11.10;;
1276;SDS011;631;51.024;13.826;2023-09-30T02:42:42;11.70;;;11.10;;
1276;SDS011;631;51.024;13.826;2023-09-30T02:45:08;11.90;;;11.30;;
1276;SDS011;631;51.024;13.826;2023-09-30T02:47:35;11.13;;;10.43;;
1276;SDS011;631;51.024;13.826;2023-09-30T02:50:02;11.60;;;11.00;;
1276;SDS011;631;51.024;13.826;2023-09-30T02:52:30;11.27;;;10.60;;
1276;SDS011;631;51.024;13.826;2023-09-30T02:54:56;10.97;;;10.33;;
1276;SDS011;631;51.024;13.826;2023-09-30T02:57:22;12.00;;;11.37;;
1276;SDS011;631;51.024;13.826;2023-09-30T02:59:48;11.30;;;10.70;;
1276;SDS011;631;51.024;13.826;2023-09-30T03:02:14;11.27;;;10.67;;
1276;SDS011;631;51.024;13.826;2023-09-30T03:04:40;11.50;;;10.70;;
1276;SDS011;631;51.024;13.826;2023-09-30T03:07:07;12.07;;;11.37;;
1276;SDS011;631;51.024;13.826;2023-09-30T03:09:33;11.50;;;10.90;;
1276;SDS011;631;51.024;13.826;2023-09-30T03:12:00;11.27;;;10.77;;
1276;SDS011;631;51.024;13.826;2023-09-30T03:14:27;11.37;;;10.70;;
1276;SDS011;631;51.024;13.826;2023-09-30T03:16:56;11.70;;;11.10;;
1276;SDS011;631;51.024;13.826;2023-09-30T03:19:22;12.10;;;11.30;;
1276;SDS011;631;51.024;13.826;2023-09-30T03:21:48;11.27;;;10.37;;
1276;SDS011;631;51.024;13.826;2023-09-30T03:24:13;11.27;;;10.77;;
1276;SDS011;631;51.024;13.826;2023-09-30T03:26:39;11.20;;;10.60;;
1276;SDS011;631;51.024;13.826;2023-09-30T03:29:06;11.07;;;10.47;;
1276;SDS011;631;51.024;13.826;2023-09-30T03:31:33;11.80;;;11.10;;
1276;SDS011;631;51.024;13.826;2023-09-30T03:34:00;12.10;;;11.40;;
1276;SDS011;631;51.024;13.826;2023-09-30T03:36:25;11.73;;;11.03;;
1276;SDS011;631;51.024;13.826;2023-09-30T03:38:54;11.93;;;11.13;;
1276;SDS011;631;51.024;13.826;2023-09-30T03:41:19;11.53;;;10.73;;
1276;SDS011;631;51.024;13.826;2023-09-30T03:43:45;12.13;;;11.33;;
1276;SDS011;631;51.024;13.826;2023-09-30T03:46:12;12.37;;;11.60;;
1276;SDS011;631;51.024;13.826;2023-09-30T03:48:38;11.77;;;10.97;;
1276;SDS011;631;51.024;13.826;2023-09-30T03:51:16;11.03;;;10.53;;
1276;SDS011;631;51.024;13.826;2023-09-30T03:53:42;11.20;;;10.60;;
1276;SDS011;631;51.024;13.826;2023-09-30T03:56:09;11.87;;;11.10;;
1276;SDS011;631;51.024;13.826;2023-09-30T03:58:39;12.70;;;12.00;;
1276;SDS011;631;51.024;13.826;2023-09-30T04:01:06;10.63;;;9.90;;
1276;SDS011;631;51.024;13.826;2023-09-30T04:03:32;12.20;;;11.30;;
1276;SDS011;631;51.024;13.826;2023-09-30T04:05:58;11.50;;;10.80;;
1276;SDS011;631;51.024;13.826;2023-09-30T04:08:24;11.97;;;11.27;;
1276;SDS011;631;51.024;13.826;2023-09-30T04:10:49;11.87;;;11.20;;
1276;SDS011;631;51.024;13.826;2023-09-30T04:13:15;12.37;;;11.67;;
1276;SDS011;631;51.024;13.826;2023-09-30T04:15:42;12.20;;;11.30;;
1276;SDS011;631;51.024;13.826;2023-09-30T04:18:09;11.80;;;10.97;;
1276;SDS011;631;51.024;13.826;2023-09-30T04:20:36;11.77;;;10.93;;
1276;SDS011;631;51.024;13.826;2023-09-30T04:23:04;12.13;;;11.27;;
1276;SDS011;631;51.024;13.826;2023-09-30T04:25:31;11.17;;;10.47;;
1276;SDS011;631;51.024;13.826;2023-09-30T04:27:57;11.67;;;10.77;;
1276;SDS011;631;51.024;13.826;2023-09-30T04:30:23;12.17;;;11.27;;
1276;SDS011;631;51.024;13.826;2023-09-30T04:32:49;11.63;;;10.90;;
1276;SDS011;631;51.024;13.826;2023-09-30T04:35:15;12.20;;;11.30;;
1276;SDS011;631;51.024;13.826;2023-09-30T04:37:40;11.90;;;11.10;;
1276;SDS011;631;51.024;13.826;2023-09-30T04:40:09;11.03;;;10.50;;
1276;SDS011;631;51.024;13.826;2023-09-30T04:42:44;12.10;;;11.13;;
1276;SDS011;631;51.024;13.826;2023-09-30T04:45:13;11.90;;;11.30;;
1276;SDS011;631;51.024;13.826;2023-09-30T04:47:41;12.00;;;11.10;;
1276;SDS011;631;51.024;13.826;2023-09-30T04:50:09;12.53;;;11.63;;
1276;SDS011;631;51.024;13.826;2023-09-30T04:52:36;12.13;;;11.43;;
1276;SDS011;631;51.024;13.826;2023-09-30T04:55:03;12.17;;;11.23;;
1276;SDS011;631;51.024;13.826;2023-09-30T04:57:29;12.00;;;11.10;;
1276;SDS011;631;51.024;13.826;2023-09-30T04:59:56;13.13;;;12.23;;
1276;SDS011;631;51.024;13.826;2023-09-30T05:02:22;11.50;;;10.70;;
1276;SDS011;631;51.024;13.826;2023-09-30T05:04:49;12.23;;;11.37;;
1276;SDS011;631;51.024;13.826;2023-09-30T05:07:14;12.60;;;11.40;;
1276;SDS011;631;51.024;13.826;2023-09-30T05:09:40;12.27;;;11.40;;
1276;SDS011;631;51.024;13.826;2023-09-30T05:12:06;12.73;;;11.50;;
1276;SDS011;631;51.024;13.826;2023-09-30T05:14:32;11.77;;;11.07;;
1276;SDS011;631;51.024;13.826;2023-09-30T05:16:58;11.73;;;10.97;;
1276;SDS011;631;51.024;13.826;2023-09-30T05:19:24;12.67;;;11.77;;
1276;SDS011;631;51.024;13.826;2023-09-30T05:21:49;13.03;;;11.87;;
1276;SDS011;631;51.024;13.826;2023-09-30T05:24:15;12.10;;;11.30;;
1276;SDS011;631;51.024;13.826;2023-09-30T05:26:44;12.23;;;11.33;;
1276;SDS011;631;51.024;13.826;2023-09-30T05:29:10;12.17;;;11.37;;
1276;SDS011;631;51.024;13.826;2023-09-30T05:31:35;12.93;;;12.03;;
1276;SDS011;631;51.024;13.826;2023-09-30T05:34:02;11.67;;;10.87;;
1276;SDS011;631;51.024;13.826;2023-09-30T05:36:27;12.17;;;11.47;;
1276;SDS011;631;51.024;13.826;2023-09-30T05:38:54;12.90;;;11.90;;
1276;SDS011;631;51.024;13.826;2023-09-30T05:41:23;12.80;;;12.00;;
1276;SDS011;631;51.024;13.826;2023-09-30T05:43:49;12.13;;;11.30;;
1276;SDS011;631;51.024;13.826;2023-09-30T05:46:15;12.27;;;11.30;;
1276;SDS011;631;51.024;13.826;2023-09-30T05:48:41;11.90;;;11.00;;
1276;SDS011;631;51.024;13.826;2023-09-30T05:51:07;11.93;;;10.93;;
1276;SDS011;631;51.024;13.826;2023-09-30T05:53:32;11.87;;;10.97;;
1276;SDS011;631;51.024;13.826;2023-09-30T05:55:58;11.33;;;10.60;;
1276;SDS011;631;51.024;13.826;2023-09-30T05:58:25;11.87;;;11.03;;
1276;SDS011;631;51.024;13.826;2023-09-30T06:00:51;12.70;;;11.77;;
1276;SDS011;631;51.024;13.826;2023-09-30T06:03:18;12.90;;;11.90;;
1276;SDS011;631;51.024;13.826;2023-09-30T06:05:44;12.70;;;11.90;;
1276;SDS011;631;51.024;13.826;2023-09-30T06:08:09;11.90;;;11.20;;
1276;SDS011;631;51.024;13.826;2023-09-30T06:10:39;12.47;;;11.60;;
1276;SDS011;631;51.024;13.826;2023-09-30T06:13:07;12.03;;;11.33;;
1276;SDS011;631;51.024;13.826;2023-09-30T06:15:33;12.33;;;11.43;;
1276;SDS011;631;51.024;13.826;2023-09-30T06:18:02;12.23;;;11.33;;
1276;SDS011;631;51.024;13.826;2023-09-30T06:20:29;11.97;;;11.20;;
1276;SDS011;631;51.024;13.826;2023-09-30T06:22:56;12.67;;;11.80;;
1276;SDS011;631;51.024;13.826;2023-09-30T06:25:21;12.80;;;12.10;;
1276;SDS011;631;51.024;13.826;2023-09-30T06:27:52;12.03;;;11.30;;
1276;SDS011;631;51.024;13.826;2023-09-30T06:30:20;11.77;;;11.10;;
1276;SDS011;631;51.024;13.826;2023-09-30T06:32:46;11.80;;;11.10;;
1276;SDS011;631;51.024;13.826;2023-09-30T06:35:12;12.23;;;11.33;;
1276;SDS011;631;51.024;13.826;2023-09-30T06:37:38;12.27;;;11.30;;
1276;SDS011;631;51.024;13.826;2023-09-30T06:40:05;11.70;;;10.73;;
1276;SDS011;631;51.024;13.826;2023-09-30T06:42:37;12.60;;;11.60;;
1276;SDS011;631;51.024;13.826;2023-09-30T06:45:05;12.33;;;11.53;;
1276;SDS011;631;51.024;13.826;2023-09-30T06:47:31;11.90;;;10.80;;
1276;SDS011;631;51.024;13.826;2023-09-30T06:49:59;12.07;;;11.47;;
1276;SDS011;631;51.024;13.826;2023-09-30T06:52:42;11.40;;;10.40;;
1276;SDS011;631;51.024;13.826;2023-09-30T06:55:10;12.40;;;11.30;;
1276;SDS011;631;51.024;13.826;2023-09-30T06:57:38;11.60;;;10.90;;
1276;SDS011;631;51.024;13.826;2023-09-30T07:00:09;12.17;;;11.10;;
1276;SDS011;631;51.024;13.826;2023-09-30T07:02:37;12.60;;;11.60;;
1276;SDS011;631;51.024;13.826;2023-09-30T07:05:09;11.47;;;10.80;;
1276;SDS011;631;51.024;13.826;2023-09-30T07:07:36;11.43;;;10.67;;
1276;SDS011;631;51.024;13.826;2023-09-30T07:10:02;11.60;;;10.93;;
1276;SDS011;631;51.024;13.826;2023-09-30T07:12:32;12.27;;;11.40;;
1276;SDS011;631;51.024;13.826;2023-09-30T07:15:00;11.30;;;10.30;;
1276;SDS011;631;51.024;13.826;2023-09-30T07:17:29;11.63;;;10.83;;
1276;SDS011;631;51.024;13.826;2023-09-30T07:19:55;12.70;;;11.40;;
1276;SDS011;631;51.024;13.826;2023-09-30T07:22:21;13.00;;;12.00;;
1276;SDS011;631;51.024;13.826;2023-09-30T07:24:47;13.50;;;12.40;;
1276;SDS011;631;51.024;13.826;2023-09-30T07:27:13;13.40;;;12.10;;
1276;SDS011;631;51.024;13.826;2023-09-30T07:29:38;11.50;;;10.60;;
1276;SDS011;631;51.024;13.826;2023-09-30T07:32:04;12.67;;;11.57;;
1276;SDS011;631;51.024;13.826;2023-09-30T07:34:32;10.30;;;9.70;;
1276;SDS011;631;51.024;13.826;2023-09-30T07:36:58;11.60;;;10.77;;
1276;SDS011;631;51.024;13.826;2023-09-30T07:39:23;12.40;;;11.57;;
1276;SDS011;631;51.024;13.826;2023-09-30T07:41:49;12.67;;;11.67;;
1276;SDS011;631;51.024;13.826;2023-09-30T07:44:14;13.17;;;11.87;;
1276;SDS011;631;51.024;13.826;2023-09-30T07:46:40;11.20;;;10.30;;
1276;SDS011;631;51.024;13.826;2023-09-30T07:49:07;12.07;;;11.17;;
1276;SDS011;631;51.024;13.826;2023-09-30T07:51:33;11.50;;;10.70;;
1276;SDS011;631;51.024;13.826;2023-09-30T07:54:00;12.30;;;11.43;;
1276;SDS011;631;51.024;13.826;2023-09-30T07:56:26;12.20;;;11.10;;
1276;SDS011;631;51.024;13.826;2023-09-30T07:58:52;11.40;;;10.70;;
1276;SDS011;631;51.024;13.826;2023-09-30T08:01:17;12.90;;;11.90;;
1276;SDS011;631;51.024;13.826;2023-09-30T08:03:43;11.17;;;10.47;;
1276;SDS011;631;51.024;13.826;2023-09-30T08:06:09;11.57;;;10.70;;
1276;SDS011;631;51.024;13.826;2023-09-30T08:08:34;16.57;;;11.10;;
1276;SDS011;631;51.024;13.826;2023-09-30T08:11:01;11.70;;;10.87;;
1276;SDS011;631;51.024;13.826;2023-09-30T08:13:27;11.70;;;10.90;;
1276;SDS011;631;51.024;13.826;2023-09-30T08:15:54;12.07;;;10.97;;
1276;SDS011;631;51.024;13.826;2023-09-30T08:18:20;11.37;;;10.67;;
1276;SDS011;631;51.024;13.826;2023-09-30T08:20:46;11.63;;;10.93;;
1276;SDS011;631;51.024;13.826;2023-09-30T08:23:12;11.60;;;10.90;;
1276;SDS011;631;51.024;13.826;2023-09-30T08:25:38;10.97;;;10.30;;
1276;SDS011;631;51.024;13.826;2023-09-30T08:28:04;10.90;;;10.10;;
1276;SDS011;631;51.024;13.826;2023-09-30T08:30:30;11.33;;;10.43;;
1276;SDS011;631;51.024;13.826;2023-09-30T08:32:58;11.13;;;10.23;;
1276;SDS011;631;51.024;13.826;2023-09-30T08:35:24;12.20;;;11.20;;
1276;SDS011;631;51.024;13.826;2023-09-30T08:37:49;12.03;;;11.00;;
1276;SDS011;631;51.024;13.826;2023-09-30T08:40:19;10.70;;;10.00;;
1276;SDS011;631;51.024;13.826;2023-09-30T08:42:45;11.80;;;10.80;;
1276;SDS011;631;51.024;13.826;2023-09-30T08:45:19;11.40;;;10.60;;
1276;SDS011;631;51.024;13.826;2023-09-30T08:47:44;11.50;;;10.70;;
1276;SDS011;631;51.024;13.826;2023-09-30T08:50:11;11.00;;;10.43;;
1276;SDS011;631;51.024;13.826;2023-09-30T08:52:39;11.07;;;10.33;;
1276;SDS011;631;51.024;13.826;2023-09-30T08:55:06;12.00;;;11.30;;
1276;SDS011;631;51.024;13.826;2023-09-30T08:57:33;11.37;;;10.60;;
1276;SDS011;631;51.024;13.826;2023-09-30T09:00:04;11.87;;;11.07;;
1276;SDS011;631;51.024;13.826;2023-09-30T09:02:33;9.93;;;9.40;;
1276;SDS011;631;51.024;13.826;2023-09-30T09:05:00;11.27;;;10.50;;
1276;SDS011;631;51.024;13.826;2023-09-30T09:07:27;10.77;;;10.00;;
1276;SDS011;631;51.024;13.826;2023-09-30T09:10:08;10.43;;;9.63;;
1276;SDS011;631;51.024;13.826;2023-09-30T09:12:36;11.40;;;10.67;;
1276;SDS011;631;51.024;13.826;2023-09-30T09:15:04;10.43;;;9.93;;
1276;SDS011;631;51.024;13.826;2023-09-30T09:17:40;11.10;;;10.50;;
1276;SDS011;631;51.024;13.826;2023-09-30T09:20:07;12.00;;;11.10;;
1276;SDS011;631;51.024;13.826;2023-09-30T09:22:41;11.20;;;10.50;;
1276;SDS011;631;51.024;13.826;2023-09-30T09:25:08;10.20;;;9.60;;
1276;SDS011;631;51.024;13.826;2023-09-30T09:27:35;11.17;;;10.47;;
1276;SDS011;631;51.024;13.826;2023-09-30T09:35:25;10.30;;;9.73;;
1276;SDS011;631;51.024;13.826;2023-09-30T09:37:54;11.57;;;10.80;;
1276;SDS011;631;51.024;13.826;2023-09-30T09:40:38;11.23;;;10.40;;
1276;SDS011;631;51.024;13.826;2023-09-30T09:43:05;11.07;;;10.47;;
1276;SDS011;631;51.024;13.826;2023-09-30T09:45:35;10.40;;;9.80;;
1276;SDS011;631;51.024;13.826;2023-09-30T09:48:04;11.73;;;10.93;;
1276;SDS011;631;51.024;13.826;2023-09-30T09:50:31;10.63;;;9.93;;
1276;SDS011;631;51.024;13.826;2023-09-30T09:52:58;11.50;;;10.80;;
1276;SDS011;631;51.024;13.826;2023-09-30T09:55:25;10.70;;;10.00;;
1276;SDS011;631;51.024;13.826;2023-09-30T09:57:52;10.67;;;9.97;;
1276;SDS011;631;51.024;13.826;2023-09-30T10:00:19;10.33;;;9.73;;
1276;SDS011;631;51.024;13.826;2023-09-30T10:02:46;11.03;;;10.23;;
1276;SDS011;631;51.024;13.826;2023-09-30T10:05:13;11.50;;;10.70;;
1276;SDS011;631;51.024;13.826;2023-09-30T10:07:41;10.60;;;9.90;;
1276;SDS011;631;51.024;13.826;2023-09-30T10:10:19;10.13;;;9.47;;
1276;SDS011;631;51.024;13.826;2023-09-30T10:12:46;10.90;;;10.20;;
1276;SDS011;631;51.024;13.826;2023-09-30T10:18:03;10.03;;;9.47;;
1276;SDS011;631;51.024;13.826;2023-09-30T10:20:32;10.20;;;9.60;;
1276;SDS011;631;51.024;13.826;2023-09-30T10:25:42;10.27;;;9.60;;
1276;SDS011;631;51.024;13.826;2023-09-30T10:33:37;11.47;;;10.87;;
1276;SDS011;631;51.024;13.826;2023-09-30T10:39:03;10.63;;;9.90;;
1276;SDS011;631;51.024;13.826;2023-09-30T10:46:50;10.10;;;9.30;;
1276;SDS011;631;51.024;13.826;2023-09-30T10:51:50;10.33;;;9.80;;
1276;SDS011;631;51.024;13.826;2023-09-30T10:54:32;10.90;;;10.20;;
1276;SDS011;631;51.024;13.826;2023-09-30T10:56:58;10.73;;;10.00;;
1276;SDS011;631;51.024;13.826;2023-09-30T10:59:26;9.67;;;9.10;;
1276;SDS011;631;51.024;13.826;2023-09-30T11:01:53;10.17;;;9.37;;
1276;SDS011;631;51.024;13.826;2023-09-30T11:04:19;10.30;;;9.60;;
1276;SDS011;631;51.024;13.826;2023-09-30T11:06:45;9.97;;;9.47;;
1276;SDS011;631;51.024;13.826;2023-09-30T11:09:17;10.07;;;9.50;;
1276;SDS011;631;51.024;13.826;2023-09-30T11:11:48;10.40;;;9.73;;
1276;SDS011;631;51.024;13.826;2023-09-30T11:14:25;10.70;;;10.10;;
1276;SDS011;631;51.024;13.826;2023-09-30T11:16:53;11.23;;;10.23;;
1276;SDS011;631;51.024;13.826;2023-09-30T11:19:20;11.17;;;10.40;;
1276;SDS011;631;51.024;13.826;2023-09-30T11:21:50;10.13;;;9.63;;
1276;SDS011;631;51.024;13.826;2023-09-30T11:24:17;10.80;;;10.00;;
1276;SDS011;631;51.024;13.826;2023-09-30T11:26:46;10.33;;;9.70;;
1276;SDS011;631;51.024;13.826;2023-09-30T11:29:16;10.90;;;10.30;;
1276;SDS011;631;51.024;13.826;2023-09-30T11:31:46;10.07;;;9.40;;
1276;SDS011;631;51.024;13.826;2023-09-30T11:34:13;9.10;;;8.60;;
1276;SDS011;631;51.024;13.826;2023-09-30T11:36:48;9.77;;;9.27;;
1276;SDS011;631;51.024;13.826;2023-09-30T11:39:35;9.77;;;9.07;;
1276;SDS011;631;51.024;13.826;2023-09-30T11:42:01;10.47;;;9.90;;
1276;SDS011;631;51.024;13.826;2023-09-30T11:44:27;11.13;;;10.30;;
1276;SDS011;631;51.024;13.826;2023-09-30T11:46:56;10.27;;;9.67;;
1276;SDS011;631;51.024;13.826;2023-09-30T11:49:28;10.50;;;10.00;;
1276;SDS011;631;51.024;13.826;2023-09-30T11:52:06;10.03;;;9.43;;
1276;SDS011;631;51.024;13.826;2023-09-30T11:54:36;10.13;;;9.63;;
1276;SDS011;631;51.024;13.826;2023-09-30T11:57:06;10.47;;;9.87;;
1276;SDS011;631;51.024;13.826;2023-09-30T11:59:36;11.10;;;10.50;;
1276;SDS011;631;51.024;13.826;2023-09-30T12:02:03;10.20;;;9.53;;
1276;SDS011;631;51.024;13.826;2023-09-30T12:04:30;10.87;;;10.03;;
1276;SDS011;631;51.024;13.826;2023-09-30T12:06:56;9.70;;;9.20;;
1276;SDS011;631;51.024;13.826;2023-09-30T12:09:22;10.80;;;10.20;;
1276;SDS011;631;51.024;13.826;2023-09-30T12:11:52;10.27;;;9.57;;
1276;SDS011;631;51.024;13.826;2023-09-30T12:14:18;10.07;;;9.50;;
1276;SDS011;631;51.024;13.826;2023-09-30T12:16:45;10.87;;;10.27;;
1276;SDS011;631;51.024;13.826;2023-09-30T12:19:12;11.00;;;10.30;;
1276;SDS011;631;51.024;13.826;2023-09-30T12:21:43;10.17;;;9.57;;
1276;SDS011;631;51.024;13.826;2023-09-30T12:24:12;9.90;;;9.30;;
1276;SDS011;631;51.024;13.826;2023-09-30T12:26:44;10.67;;;9.87;;
1276;SDS011;631;51.024;13.826;2023-09-30T12:29:14;11.00;;;10.40;;
1276;SDS011;631;51.024;13.826;2023-09-30T12:31:47;10.90;;;10.30;;
1276;SDS011;631;51.024;13.826;2023-09-30T12:34:14;10.27;;;9.70;;
1276;SDS011;631;51.024;13.826;2023-09-30T12:36:40;10.43;;;9.60;;
1276;SDS011;631;51.024;13.826;2023-09-30T12:39:06;10.53;;;9.93;;
1276;SDS011;631;51.024;13.826;2023-09-30T12:41:39;10.67;;;10.17;;
1276;SDS011;631;51.024;13.826;2023-09-30T12:44:06;9.43;;;9.03;;
1276;SDS011;631;51.024;13.826;2023-09-30T12:46:32;11.17;;;10.47;;
1276;SDS011;631;51.024;13.826;2023-09-30T12:49:00;10.03;;;9.53;;
1276;SDS011;631;51.024;13.826;2023-09-30T12:51:27;10.27;;;9.77;;
1276;SDS011;631;51.024;13.826;2023-09-30T12:53:52;10.70;;;10.00;;
1276;SDS011;631;51.024;13.826;2023-09-30T12:56:18;10.27;;;9.70;;
1276;SDS011;631;51.024;13.826;2023-09-30T12:58:44;11.20;;;10.60;;
1276;SDS011;631;51.024;13.826;2023-09-30T13:01:09;10.40;;;9.80;;
1276;SDS011;631;51.024;13.826;2023-09-30T13:03:35;11.27;;;10.57;;
1276;SDS011;631;51.024;13.826;2023-09-30T13:06:01;10.17;;;9.67;;
1276;SDS011;631;51.024;13.826;2023-09-30T13:08:27;9.90;;;9.30;;
1276;SDS011;631;51.024;13.826;2023-09-30T13:10:58;10.73;;;10.23;;
1276;SDS011;631;51.024;13.826;2023-09-30T13:13:30;9.90;;;9.40;;
1276;SDS011;631;51.024;13.826;2023-09-30T13:15:58;10.70;;;10.10;;
1276;SDS011;631;51.024;13.826;2023-09-30T13:18:30;10.60;;;10.10;;
1276;SDS011;631;51.024;13.826;2023-09-30T13:20:56;10.57;;;9.90;;
1276;SDS011;631;51.024;13.826;2023-09-30T13:23:22;10.73;;;10.13;;
1276;SDS011;631;51.024;13.826;2023-09-30T13:25:48;10.70;;;10.00;;
1276;SDS011;631;51.024;13.826;2023-09-30T13:28:13;10.70;;;10.20;;
1276;SDS011;631;51.024;13.826;2023-09-30T13:30:39;10.63;;;10.10;;
1276;SDS011;631;51.024;13.826;2023-09-30T13:33:05;11.00;;;10.40;;
1276;SDS011;631;51.024;13.826;2023-09-30T13:35:31;10.70;;;10.20;;
1276;SDS011;631;51.024;13.826;2023-09-30T13:37:57;10.37;;;9.87;;
1276;SDS011;631;51.024;13.826;2023-09-30T13:40:23;11.13;;;10.50;;
1276;SDS011;631;51.024;13.826;2023-09-30T13:42:49;10.20;;;9.60;;
1276;SDS011;631;51.024;13.826;2023-09-30T13:45:14;9.03;;;8.63;;
1276;SDS011;631;51.024;13.826;2023-09-30T13:47:42;10.63;;;10.07;;
1276;SDS011;631;51.024;13.826;2023-09-30T13:50:08;9.80;;;9.20;;
1276;SDS011;631;51.024;13.826;2023-09-30T13:52:34;10.40;;;9.70;;
1276;SDS011;631;51.024;13.826;2023-09-30T13:55:00;9.80;;;9.10;;
1276;SDS011;631;51.024;13.826;2023-09-30T13:57:26;10.40;;;9.83;;
1276;SDS011;631;51.024;13.826;2023-09-30T13:59:51;10.70;;;10.20;;
1276;SDS011;631;51.024;13.826;2023-09-30T14:02:17;9.70;;;9.20;;
1276;SDS011;631;51.024;13.826;2023-09-30T14:04:42;10.23;;;9.63;;
1276;SDS011;631;51.024;13.826;2023-09-30T14:07:09;10.23;;;9.60;;
1276;SDS011;631;51.024;13.826;2023-09-30T14:09:34;9.80;;;9.20;;
1276;SDS011;631;51.024;13.826;2023-09-30T14:12:00;10.30;;;9.73;;
1276;SDS011;631;51.024;13.826;2023-09-30T14:14:26;9.83;;;9.27;;
1276;SDS011;631;51.024;13.826;2023-09-30T14:16:51;10.87;;;10.27;;
1276;SDS011;631;51.024;13.826;2023-09-30T14:19:17;10.93;;;10.33;;
1276;SDS011;631;51.024;13.826;2023-09-30T14:21:43;10.60;;;10.10;;
1276;SDS011;631;51.024;13.826;2023-09-30T14:24:08;10.90;;;10.20;;
1276;SDS011;631;51.024;13.826;2023-09-30T14:26:34;10.33;;;9.83;;
1276;SDS011;631;51.024;13.826;2023-09-30T14:29:01;9.80;;;9.30;;
1276;SDS011;631;51.024;13.826;2023-09-30T14:31:26;10.70;;;10.10;;
1276;SDS011;631;51.024;13.826;2023-09-30T14:33:52;10.53;;;10.00;;
1276;SDS011;631;51.024;13.826;2023-09-30T14:36:18;10.57;;;9.97;;
1276;SDS011;631;51.024;13.826;2023-09-30T14:38:44;9.80;;;9.20;;
1276;SDS011;631;51.024;13.826;2023-09-30T14:41:10;10.87;;;10.27;;
1276;SDS011;631;51.024;13.826;2023-09-30T14:43:37;10.80;;;10.10;;
1276;SDS011;631;51.024;13.826;2023-09-30T14:46:03;10.47;;;9.90;;
1276;SDS011;631;51.024;13.826;2023-09-30T14:48:29;10.80;;;10.30;;
1276;SDS011;631;51.024;13.826;2023-09-30T14:50:55;11.60;;;10.80;;
1276;SDS011;631;51.024;13.826;2023-09-30T14:53:21;10.97;;;10.37;;
1276;SDS011;631;51.024;13.826;2023-09-30T14:55:47;9.40;;;8.80;;
1276;SDS011;631;51.024;13.826;2023-09-30T14:58:13;10.50;;;9.80;;
1276;SDS011;631;51.024;13.826;2023-09-30T15:00:39;11.57;;;10.87;;
1276;SDS011;631;51.024;13.826;2023-09-30T15:03:04;10.43;;;9.93;;
1276;SDS011;631;51.024;13.826;2023-09-30T15:05:30;10.63;;;10.13;;
1276;SDS011;631;51.024;13.826;2023-09-30T15:07:56;10.73;;;9.83;;
1276;SDS011;631;51.024;13.826;2023-09-30T15:10:24;10.77;;;10.17;;
1276;SDS011;631;51.024;13.826;2023-09-30T15:12:50;10.60;;;10.10;;
1276;SDS011;631;51.024;13.826;2023-09-30T15:15:15;10.87;;;10.37;;
1276;SDS011;631;51.024;13.826;2023-09-30T15:17:41;10.27;;;9.60;;